Time;durP1;ratioP1;P1;durP2;ratioP2;P2;SDS_P1;SDS_P2;PMS_P1;PMS_P2;Temp;Humidity;BMP_temperature;BMP_pressure;BME280_temperature;BME280_humidity;BME280_pressure;Samples;Min_cycle;Max_cycle;Signal;HPM_P1;HPM_P2
2021/08/23 00:00:01;;;;;;;6.63;6.00;;;17.00;99.90;;;;;;5089787;28;20446;-78
2021/08/23 00:02:28;;;;;;;7.03;6.43;;;17.00;99.90;;;;;;5089271;28;20427;-79
2021/08/23 00:04:56;;;;;;;7.43;6.73;;;16.90;99.90;;;;;;5090879;28;20435;-78
2021/08/23 00:07:23;;;;;;;6.60;6.00;;;16.90;99.90;;;;;;5093046;28;20455;-77
2021/08/23 00:09:50;;;;;;;6.60;6.00;;;16.90;99.90;;;;;;5096076;28;20482;-77
2021/08/23 00:12:17;;;;;;;7.43;6.47;;;16.90;99.90;;;;;;5104414;28;20444;-79
2021/08/23 00:14:45;;;;;;;6.57;5.97;;;16.80;99.90;;;;;;5098981;28;20481;-79
2021/08/23 00:17:12;;;;;;;6.33;5.83;;;16.80;99.90;;;;;;5090332;28;20450;-78
2021/08/23 00:19:38;;;;;;;7.13;6.43;;;16.80;99.90;;;;;;5104483;28;20451;-78
2021/08/23 00:24:48;;;;;;;7.83;6.70;;;16.60;99.90;;;;;;5118691;27;20601;-79
2021/08/23 00:27:15;;;;;;;7.53;5.77;;;16.60;99.90;;;;;;5097557;28;20452;-79
2021/08/23 00:29:43;;;;;;;6.57;5.87;;;16.70;99.90;;;;;;5097515;28;20450;-78
2021/08/23 00:32:10;;;;;;;6.73;6.13;;;16.70;99.90;;;;;;5092371;28;20449;-79
2021/08/23 00:34:37;;;;;;;7.40;6.50;;;16.60;99.90;;;;;;5104287;28;20480;-79
2021/08/23 00:37:05;;;;;;;7.23;6.27;;;16.60;99.90;;;;;;5090913;28;20425;-78
2021/08/23 00:39:33;;;;;;;8.33;6.50;;;16.60;99.90;;;;;;5105496;28;20457;-79
2021/08/23 00:42:01;;;;;;;7.60;6.80;;;16.60;99.90;;;;;;5112602;28;20496;-78
2021/08/23 00:44:28;;;;;;;6.50;5.90;;;16.60;99.90;;;;;;5092710;28;20779;-79
2021/08/23 00:46:56;;;;;;;7.17;6.47;;;;;;;;;;5108455;28;20424;-78
2021/08/23 00:49:23;;;;;;;6.70;6.10;;;;;;;;;;5096984;28;20452;-78
2021/08/23 00:51:51;;;;;;;6.27;5.67;;;;;;;;;;5104064;28;20826;-78
2021/08/23 00:54:18;;;;;;;7.47;6.70;;;16.30;99.90;;;;;;5095202;28;20477;-78
2021/08/23 00:56:47;;;;;;;7.97;6.87;;;;;;;;;;5104273;28;20915;-78
2021/08/23 00:59:14;;;;;;;7.07;6.27;;;;;;;;;;5102811;28;20461;-79
2021/08/23 01:01:46;;;;;;;8.03;6.50;;;;;;;;;;5097772;28;20792;-78
2021/08/23 01:04:17;;;;;;;7.27;6.57;;;;;;;;;;5095242;28;20451;-78
2021/08/23 01:06:45;;;;;;;8.27;6.67;;;;;;;;;;5117206;28;20442;-79
2021/08/23 01:09:14;;;;;;;7.70;5.37;;;;;;;;;;5110988;28;20476;-79
2021/08/23 01:11:48;;;;;;;7.10;6.40;;;;;;;;;;5103653;28;20444;-78
2021/08/23 01:14:17;;;;;;;7.20;6.27;;;;;;;;;;5114828;28;20501;-78
2021/08/23 01:16:44;;;;;;;8.10;7.20;;;;;;;;;;5099713;28;20942;-78
2021/08/23 01:19:14;;;;;;;8.47;7.00;;;;;;;;;;5114668;28;20435;-79
2021/08/23 01:21:42;;;;;;;6.50;5.90;;;;;;;;;;5112433;28;20480;-78
2021/08/23 01:24:10;;;;;;;6.20;5.60;;;15.50;99.90;;;;;;5103544;28;20454;-78
2021/08/23 01:26:41;;;;;;;6.80;6.10;;;16.30;99.90;;;;;;5110661;28;20435;-78
2021/08/23 01:29:15;;;;;;;7.03;6.33;;;16.30;99.90;;;;;;5105131;28;20451;-78
2021/08/23 01:31:51;;;;;;;6.97;6.27;;;16.30;99.90;;;;;;5109364;28;20479;-79
2021/08/23 01:34:20;;;;;;;6.67;6.07;;;16.30;99.90;;;;;;5113975;28;20488;-78
2021/08/23 01:36:47;;;;;;;6.93;6.20;;;16.30;99.90;;;;;;5081892;28;20483;-77
2021/08/23 01:39:14;;;;;;;7.17;6.43;;;16.30;99.90;;;;;;5095630;28;20440;-78
2021/08/23 01:41:41;;;;;;;6.43;5.83;;;16.30;99.90;;;;;;5088524;28;20471;-78
2021/08/23 01:44:08;;;;;;;6.37;5.87;;;16.30;99.90;;;;;;5113895;28;20419;-78
2021/08/23 01:46:36;;;;;;;6.80;6.07;;;16.30;99.90;;;;;;5102734;28;20446;-78
2021/08/23 01:49:05;;;;;;;8.20;6.20;;;16.30;99.90;;;;;;5073818;28;20449;-78
2021/08/23 01:51:33;;;;;;;6.80;6.13;;;16.30;99.90;;;;;;5093258;28;20474;-78
2021/08/23 01:54:00;;;;;;;7.27;6.57;;;16.30;99.90;;;;;;5109700;28;20979;-78
2021/08/23 01:56:29;;;;;;;8.07;7.37;;;16.30;99.90;;;;;;5104242;28;20462;-78
2021/08/23 01:58:56;;;;;;;9.90;7.90;;;16.20;99.90;;;;;;5111501;27;20450;-78
2021/08/23 02:01:23;;;;;;;8.67;7.77;;;16.20;99.90;;;;;;5112774;28;20494;-78
2021/08/23 02:03:50;;;;;;;8.27;7.50;;;;;;;;;;5109595;28;20463;-77
2021/08/23 02:06:18;;;;;;;8.57;7.80;;;;;;;;;;5111928;28;20466;-78
2021/08/23 02:08:46;;;;;;;8.93;8.13;;;;;;;;;;5101895;28;20504;-77
2021/08/23 02:11:13;;;;;;;9.90;8.93;;;16.10;99.90;;;;;;5092541;28;20475;-78
2021/08/23 02:13:40;;;;;;;10.13;9.20;;;16.10;99.90;;;;;;5103671;28;20481;-78
2021/08/23 02:16:07;;;;;;;10.20;9.20;;;16.20;99.90;;;;;;5112934;28;20435;-79
2021/08/23 02:18:34;;;;;;;9.80;8.90;;;16.20;99.90;;;;;;5103009;28;20462;-78
2021/08/23 02:21:01;;;;;;;8.73;7.77;;;16.20;99.90;;;;;;5099701;28;20518;-78
2021/08/23 02:23:28;;;;;;;8.90;7.23;;;;;;;;;;5097411;28;20456;-78
2021/08/23 02:25:56;;;;;;;9.10;7.90;;;16.00;99.90;;;;;;5095310;28;20458;-78
2021/08/23 02:28:23;;;;;;;8.03;7.23;;;16.10;99.90;;;;;;5091228;28;20805;-78
2021/08/23 02:30:50;;;;;;;8.10;7.30;;;;;;;;;;5098637;28;20954;-78
2021/08/23 02:33:17;;;;;;;9.13;8.17;;;;;;;;;;5103159;28;20459;-77
2021/08/23 02:35:45;;;;;;;11.33;7.13;;;;;;;;;;5103609;28;20482;-78
2021/08/23 02:38:12;;;;;;;8.47;7.67;;;;;;;;;;5094690;28;20454;-78
2021/08/23 02:40:39;;;;;;;8.70;7.87;;;;;;;;;;5091541;28;20471;-78
2021/08/23 02:43:07;;;;;;;9.80;8.90;;;16.00;99.90;;;;;;5108443;28;20461;-78
2021/08/23 02:45:34;;;;;;;9.40;8.40;;;16.00;99.90;;;;;;5112986;28;20916;-79
2021/08/23 02:48:03;;;;;;;9.17;8.27;;;;;;;;;;5100870;28;20454;-77
2021/08/23 02:50:30;;;;;;;9.63;8.70;;;;;;;;;;5094420;28;20446;-78
2021/08/23 02:52:57;;;;;;;9.50;8.43;;;;;;;;;;5115022;28;20442;-78
2021/08/23 02:55:24;;;;;;;9.27;8.33;;;;;;;;;;5113227;28;20474;-78
2021/08/23 02:57:51;;;;;;;10.33;9.40;;;;;;;;;;5101920;28;20822;-79
2021/08/23 03:00:20;;;;;;;9.83;8.90;;;15.80;99.90;;;;;;5109353;28;20457;-76
2021/08/23 03:02:48;;;;;;;9.23;8.33;;;;;;;;;;5109598;28;20430;-78
2021/08/23 03:05:15;;;;;;;9.10;8.03;;;;;;;;;;5100674;28;20548;-77
2021/08/23 03:07:43;;;;;;;9.70;8.80;;;;;;;;;;5110804;28;20438;-78
2021/08/23 03:10:11;;;;;;;9.60;8.70;;;16.00;99.90;;;;;;5091410;28;20999;-78
2021/08/23 03:12:38;;;;;;;8.83;8.03;;;16.00;99.90;;;;;;5094283;28;20414;-77
2021/08/23 03:15:05;;;;;;;9.60;8.70;;;16.00;99.90;;;;;;5093322;28;20828;-78
2021/08/23 03:17:36;;;;;;;9.67;8.67;;;16.10;99.90;;;;;;5107408;28;20429;-78
2021/08/23 03:20:03;;;;;;;9.60;8.60;;;16.10;99.90;;;;;;5093313;28;21066;-78
2021/08/23 03:22:30;;;;;;;9.63;8.50;;;16.10;99.90;;;;;;5094369;28;20859;-78
2021/08/23 03:24:57;;;;;;;8.50;7.70;;;16.10;99.90;;;;;;5100813;28;20807;-77
2021/08/23 03:27:24;;;;;;;8.00;7.30;;;16.10;99.90;;;;;;5111875;28;20954;-78
2021/08/23 03:29:53;;;;;;;9.03;7.63;;;16.20;99.90;;;;;;5103366;28;20465;-78
2021/08/23 03:32:20;;;;;;;7.23;6.60;;;16.20;99.90;;;;;;5099327;28;20458;-79
2021/08/23 03:34:48;;;;;;;7.00;6.40;;;16.20;99.90;;;;;;5091727;28;20489;-78
2021/08/23 03:37:15;;;;;;;8.20;7.00;;;16.20;99.90;;;;;;5100417;28;20451;-77
2021/08/23 03:39:42;;;;;;;7.60;6.90;;;16.20;99.90;;;;;;5071212;28;20447;-78
2021/08/23 03:42:09;;;;;;;8.37;7.50;;;16.20;99.90;;;;;;5109911;28;20446;-79
2021/08/23 03:44:36;;;;;;;8.37;7.67;;;16.30;99.90;;;;;;5111661;28;20417;-78
2021/08/23 03:47:04;;;;;;;7.83;7.10;;;16.30;99.90;;;;;;5097002;28;20459;-79
2021/08/23 03:49:31;;;;;;;8.53;7.73;;;16.20;99.90;;;;;;5103736;28;20406;-77
2021/08/23 03:51:59;;;;;;;9.00;8.10;;;16.30;99.90;;;;;;5107460;28;20428;-79
2021/08/23 03:54:26;;;;;;;9.60;8.70;;;16.30;99.90;;;;;;5091030;28;20446;-77
2021/08/23 03:56:52;;;;;;;11.17;10.17;;;16.30;99.90;;;;;;5090545;28;20429;-78
2021/08/23 03:59:19;;;;;;;10.20;9.20;;;16.30;99.90;;;;;;5094573;28;20458;-77
2021/08/23 04:01:46;;;;;;;11.60;10.40;;;16.30;99.90;;;;;;5110611;28;20469;-79
2021/08/23 04:04:13;;;;;;;11.37;9.90;;;16.30;99.90;;;;;;5105244;28;20803;-79
2021/08/23 04:06:44;;;;;;;11.13;10.03;;;16.30;99.90;;;;;;5089891;28;21573;-77
2021/08/23 04:09:13;;;;;;;10.57;9.33;;;16.30;99.90;;;;;;5090545;28;20477;-78
2021/08/23 04:11:40;;;;;;;11.90;10.47;;;16.30;99.90;;;;;;5090719;28;20505;-78
2021/08/23 04:14:07;;;;;;;13.70;10.43;;;16.30;99.90;;;;;;5095198;28;20450;-79
2021/08/23 04:16:34;;;;;;;11.20;9.63;;;16.40;99.90;;;;;;5107152;28;20451;-78
2021/08/23 04:19:01;;;;;;;12.00;10.07;;;16.40;99.90;;;;;;5103133;28;20453;-78
2021/08/23 04:21:28;;;;;;;10.20;9.20;;;16.40;99.90;;;;;;5097272;28;20473;-77
2021/08/23 04:23:55;;;;;;;9.93;9.00;;;16.40;99.90;;;;;;5104501;28;20450;-78
2021/08/23 04:26:23;;;;;;;11.13;10.00;;;16.40;99.90;;;;;;5105851;28;20459;-77
2021/08/23 04:28:50;;;;;;;10.73;9.27;;;16.40;99.90;;;;;;5113443;28;20806;-78
2021/08/23 04:31:17;;;;;;;10.50;9.50;;;16.30;99.90;;;;;;5109910;28;21223;-77
2021/08/23 04:33:46;;;;;;;10.07;9.17;;;16.30;99.90;;;;;;5108962;28;20878;-78
2021/08/23 04:36:13;;;;;;;9.83;8.83;;;16.40;99.90;;;;;;5100031;28;20506;-78
2021/08/23 04:38:41;;;;;;;9.97;9.03;;;16.40;99.90;;;;;;5095270;28;20438;-78
2021/08/23 04:41:08;;;;;;;9.80;8.80;;;16.30;99.90;;;;;;5113579;28;20455;-78
2021/08/23 04:43:36;;;;;;;10.20;9.10;;;16.40;99.90;;;;;;5076199;28;20797;-78
2021/08/23 04:46:03;;;;;;;10.63;9.07;;;16.40;99.90;;;;;;5130306;27;20453;-77
2021/08/23 04:48:30;;;;;;;10.87;8.90;;;16.40;99.90;;;;;;5099722;28;20431;-78
2021/08/23 04:50:57;;;;;;;10.53;9.33;;;16.40;99.90;;;;;;5102839;28;20469;-79
2021/08/23 04:53:24;;;;;;;8.30;7.60;;;16.40;99.90;;;;;;5114659;28;20434;-79
2021/08/23 04:55:50;;;;;;;15.80;11.37;;;16.40;99.90;;;;;;5109266;28;20983;-79
2021/08/23 04:58:17;;;;;;;10.30;9.30;;;16.40;99.90;;;;;;5095402;28;20447;-79
2021/08/23 05:00:46;;;;;;;13.93;9.60;;;;;;;;;;5099865;28;20466;-78
2021/08/23 05:03:13;;;;;;;11.83;10.13;;;;;;;;;;5115137;28;20443;-77
2021/08/23 05:05:41;;;;;;;11.03;9.30;;;;;;;;;;5112118;28;20546;-77
2021/08/23 05:08:09;;;;;;;9.33;8.43;;;16.40;99.90;;;;;;5104879;28;20824;-78
2021/08/23 05:10:36;;;;;;;9.00;8.10;;;16.60;99.90;;;;;;5098810;28;20467;-77
2021/08/23 05:13:03;;;;;;;9.77;8.80;;;16.70;99.90;;;;;;5107928;28;20471;-77
2021/08/23 05:15:30;;;;;;;9.80;8.80;;;16.70;99.90;;;;;;5108296;28;20479;-77
2021/08/23 05:17:58;;;;;;;11.00;8.90;;;16.70;99.90;;;;;;5110692;28;20427;-79
2021/08/23 05:20:25;;;;;;;9.13;8.23;;;16.70;99.90;;;;;;5101849;28;20821;-78
2021/08/23 05:22:52;;;;;;;9.70;8.77;;;16.80;99.90;;;;;;5109883;28;20461;-77
2021/08/23 05:25:20;;;;;;;8.83;8.03;;;16.80;99.90;;;;;;5102085;28;20809;-77
2021/08/23 05:27:47;;;;;;;9.30;8.23;;;16.90;99.90;;;;;;5100366;28;20464;-78
2021/08/23 05:30:15;;;;;;;9.23;8.33;;;;;;;;;;5105046;28;20444;-78
2021/08/23 05:32:42;;;;;;;9.90;8.90;;;;;;;;;;5109508;27;20732;-79
2021/08/23 05:35:11;;;;;;;10.37;9.33;;;16.80;99.90;;;;;;5101285;28;20992;-78
2021/08/23 05:37:38;;;;;;;10.83;9.00;;;17.10;99.90;;;;;;5118774;27;20907;-79
2021/08/23 05:40:06;;;;;;;10.10;9.20;;;17.10;99.90;;;;;;5122564;27;20469;-78
2021/08/23 05:42:33;;;;;;;10.37;8.33;;;17.10;99.90;;;;;;5087869;28;20931;-78
2021/08/23 05:45:00;;;;;;;10.53;9.00;;;17.20;99.90;;;;;;5109923;28;20399;-78
2021/08/23 05:47:27;;;;;;;9.90;9.10;;;17.20;99.90;;;;;;5102103;28;20459;-77
2021/08/23 05:49:53;;;;;;;11.73;10.63;;;17.30;99.90;;;;;;5109693;28;20799;-79
2021/08/23 05:52:22;;;;;;;12.10;9.87;;;17.30;99.90;;;;;;5113326;28;20923;-78
2021/08/23 05:54:49;;;;;;;10.77;9.63;;;17.40;99.90;;;;;;5104245;28;21089;-79
2021/08/23 05:57:16;;;;;;;13.27;11.87;;;17.50;99.90;;;;;;5093881;28;20487;-79
2021/08/23 05:59:43;;;;;;;13.10;10.80;;;17.50;99.90;;;;;;5094881;28;20451;-79
2021/08/23 06:02:10;;;;;;;10.87;9.70;;;17.60;99.90;;;;;;5105880;28;20455;-80
2021/08/23 06:04:37;;;;;;;11.10;9.03;;;17.70;99.90;;;;;;5113086;28;20409;-78
2021/08/23 06:07:06;;;;;;;8.87;8.07;;;;;;;;;;5103364;28;20462;-80
2021/08/23 06:09:35;;;;;;;9.50;8.40;;;17.70;99.90;;;;;;5077507;28;20471;-79
2021/08/23 06:12:03;;;;;;;11.30;8.30;;;;;;;;;;5091463;28;20464;-78
2021/08/23 06:14:30;;;;;;;9.37;7.97;;;;;;;;;;5098088;28;20421;-79
2021/08/23 06:16:58;;;;;;;8.70;7.90;;;;;;;;;;5103875;28;20545;-78
2021/08/23 06:19:25;;;;;;;11.23;10.03;;;18.20;99.90;;;;;;5113154;28;20435;-80
2021/08/23 06:21:52;;;;;;;9.07;8.23;;;18.20;99.90;;;;;;5091676;28;20494;-80
2021/08/23 06:24:21;;;;;;;9.40;8.33;;;18.20;99.90;;;;;;5100729;28;20456;-78
2021/08/23 06:26:50;;;;;;;8.47;7.67;;;18.20;99.90;;;;;;5104747;28;20454;-83
2021/08/23 06:29:16;;;;;;;8.80;8.00;;;18.30;99.90;;;;;;5105953;28;20458;-79
2021/08/23 06:31:43;;;;;;;8.03;7.33;;;18.30;99.90;;;;;;5110650;28;20458;-80
2021/08/23 06:34:10;;;;;;;7.90;7.20;;;18.40;99.90;;;;;;5109484;28;20434;-82
2021/08/23 06:36:39;;;;;;;7.90;7.17;;;18.40;99.90;;;;;;5099319;28;20486;-78
2021/08/23 06:39:05;;;;;;;8.00;7.30;;;18.40;99.90;;;;;;5106878;28;20545;-78
2021/08/23 06:41:32;;;;;;;7.67;6.90;;;18.50;99.90;;;;;;5103418;28;20832;-77
2021/08/23 06:44:01;;;;;;;7.67;6.97;;;18.50;99.90;;;;;;5104299;28;20452;-79
2021/08/23 06:46:28;;;;;;;9.30;7.80;;;18.50;99.90;;;;;;5101719;28;20442;-79
2021/08/23 06:48:54;;;;;;;8.00;7.20;;;18.60;99.90;;;;;;5108102;28;20469;-79
2021/08/23 06:51:24;;;;;;;9.73;8.83;;;18.60;99.90;;;;;;5114166;28;20467;-79
2021/08/23 06:53:51;;;;;;;8.53;7.53;;;18.70;99.90;;;;;;5112366;28;20425;-79
2021/08/23 06:56:20;;;;;;;8.20;7.40;;;18.70;99.90;;;;;;5075427;28;20491;-79
2021/08/23 06:58:47;;;;;;;8.53;7.70;;;18.70;99.90;;;;;;5077011;28;20526;-80
2021/08/23 07:01:15;;;;;;;8.77;7.20;;;18.80;99.90;;;;;;5094182;28;20477;-78
2021/08/23 07:03:42;;;;;;;12.20;7.93;;;18.80;99.90;;;;;;5109541;28;20434;-80
2021/08/23 07:06:09;;;;;;;7.00;6.40;;;18.80;99.90;;;;;;5112699;28;20823;-81
2021/08/23 07:08:36;;;;;;;11.00;8.30;;;18.80;99.90;;;;;;5079229;28;20571;-78
2021/08/23 07:11:03;;;;;;;8.43;7.47;;;18.80;99.90;;;;;;5103847;28;20478;-82
2021/08/23 07:13:30;;;;;;;10.30;9.30;;;18.90;99.90;;;;;;5113914;28;20860;-80
2021/08/23 07:15:58;;;;;;;8.83;8.03;;;18.90;99.90;;;;;;5103692;28;20482;-79
2021/08/23 07:18:28;;;;;;;9.57;8.67;;;18.90;99.90;;;;;;5073656;28;20451;-79
2021/08/23 07:20:55;;;;;;;10.10;9.10;;;18.90;99.90;;;;;;5094347;28;20467;-79
2021/08/23 07:23:22;;;;;;;11.23;10.17;;;;;;;;;;5107053;28;20416;-81
2021/08/23 07:25:49;;;;;;;13.43;10.70;;;;;;;;;;5096200;28;20805;-80
2021/08/23 07:28:18;;;;;;;10.60;9.50;;;;;;;;;;5091737;28;21158;-78
2021/08/23 07:30:48;;;;;;;13.40;12.00;;;;;;;;;;5069788;28;20490;-80
2021/08/23 07:33:15;;;;;;;18.90;13.30;;;;;;;;;;5111508;27;20482;-83
2021/08/23 07:35:44;;;;;;;14.60;12.53;;;;;;;;;;5096543;28;20486;-84
2021/08/23 07:38:12;;;;;;;17.80;13.67;;;;;;;;;;5103734;28;20435;-81
2021/08/23 07:40:40;;;;;;;15.57;13.37;;;;;;;;;;5109199;28;20454;-82
2021/08/23 07:43:07;;;;;;;12.60;11.40;;;18.90;99.90;;;;;;5090149;28;20450;-81
2021/08/23 07:45:35;;;;;;;14.67;13.27;;;;;;;;;;5107930;28;20457;-85
2021/08/23 07:48:04;;;;;;;12.97;11.60;;;;;;;;;;5111890;28;20417;-80
2021/08/23 07:50:32;;;;;;;10.80;9.70;;;;;;;;;;5107208;28;20474;-80
2021/08/23 07:53:01;;;;;;;11.47;10.37;;;;;;;;;;5109385;28;20442;-79
2021/08/23 07:55:28;;;;;;;11.53;10.43;;;;;;;;;;5101526;28;20446;-81
2021/08/23 07:57:55;;;;;;;11.20;10.10;;;;;;;;;;5096847;28;20465;-80
2021/08/23 08:00:23;;;;;;;11.93;10.77;;;;;;;;;;5110882;28;20539;-78
2021/08/23 08:02:51;;;;;;;10.63;9.53;;;;;;;;;;5108364;28;20923;-80
2021/08/23 08:05:21;;;;;;;14.63;13.23;;;19.20;99.90;;;;;;5074251;28;20800;-79
2021/08/23 08:07:57;;;;;;;16.90;13.93;;;19.40;99.90;;;;;;5090520;28;20454;-80
2021/08/23 08:10:27;;;;;;;12.70;10.47;;;;;;;;;;5111490;28;20545;-81
2021/08/23 08:12:55;;;;;;;14.80;13.40;;;;;;;;;;5090873;28;20481;-80
2021/08/23 08:15:29;;;;;;;11.30;10.20;;;;;;;;;;5089951;28;20465;-80
2021/08/23 08:17:58;;;;;;;16.37;14.60;;;;;;;;;;5090490;28;20478;-82
2021/08/23 08:20:26;;;;;;;14.33;12.83;;;;;;;;;;5103815;28;20544;-82
2021/08/23 08:23:03;;;;;;;17.73;12.07;;;;;;;;;;5107145;28;20439;-82
2021/08/23 08:25:33;;;;;;;11.73;10.73;;;;;;;;;;5109036;28;20450;-81
2021/08/23 08:28:01;;;;;;;16.27;14.47;;;;;;;;;;5110484;28;20477;-82
2021/08/23 08:30:30;;;;;;;12.33;11.13;;;;;;;;;;5089738;28;20478;-82
2021/08/23 08:32:58;;;;;;;13.60;12.20;;;;;;;;;;5107425;28;20442;-81
2021/08/23 08:35:26;;;;;;;16.63;14.57;;;;;;;;;;5099404;28;20458;-79
2021/08/23 08:37:59;;;;;;;13.10;11.80;;;;;;;;;;5105071;28;20480;-81
2021/08/23 08:40:28;;;;;;;16.00;14.30;;;;;;;;;;5104122;28;20463;-83
2021/08/23 08:42:56;;;;;;;16.33;14.10;;;20.00;99.90;;;;;;5111413;28;20469;-81
2021/08/23 08:45:26;;;;;;;15.40;12.50;;;20.20;99.90;;;;;;5094348;28;20457;-82
2021/08/23 08:47:55;;;;;;;13.80;11.67;;;20.30;99.90;;;;;;5104857;28;20552;-80
2021/08/23 08:50:24;;;;;;;14.10;12.70;;;;;;;;;;5102234;28;20455;-82
2021/08/23 08:52:51;;;;;;;13.67;11.50;;;;;;;;;;5084020;28;20450;-82
2021/08/23 08:55:18;;;;;;;12.97;11.67;;;;;;;;;;5114088;28;20438;-82
2021/08/23 08:57:47;;;;;;;13.10;11.80;;;;;;;;;;5108244;28;20471;-80
2021/08/23 09:00:16;;;;;;;18.10;14.80;;;;;;;;;;5089136;28;20450;-83
2021/08/23 09:02:55;;;;;;;13.80;12.40;;;20.40;99.90;;;;;;5111133;28;20434;-80
2021/08/23 09:05:22;;;;;;;13.77;12.40;;;20.40;99.90;;;;;;5071368;28;20560;-82
2021/08/23 09:07:49;;;;;;;10.80;9.70;;;20.40;99.90;;;;;;5111493;28;20449;-80
2021/08/23 09:10:22;;;;;;;11.63;10.43;;;20.50;99.90;;;;;;5110847;28;20819;-84
2021/08/23 09:13:00;;;;;;;16.40;13.90;;;20.50;99.90;;;;;;5101007;28;20464;-81
2021/08/23 09:15:29;;;;;;;13.30;11.90;;;20.50;99.90;;;;;;5116538;27;20659;-83
2021/08/23 09:18:11;;;;;;;11.13;10.10;;;;;;;;;;5101834;28;20512;-82
2021/08/23 09:20:38;;;;;;;12.60;11.27;;;20.50;99.90;;;;;;5087670;28;20481;-80
2021/08/23 09:23:10;;;;;;;10.80;9.60;;;20.70;99.90;;;;;;5093152;28;20426;-81
2021/08/23 09:25:37;;;;;;;12.23;11.03;;;20.60;99.90;;;;;;5092937;28;20458;-81
2021/08/23 09:28:04;;;;;;;12.53;11.20;;;20.60;99.90;;;;;;5114734;28;20438;-81
2021/08/23 09:30:33;;;;;;;12.07;10.80;;;20.60;99.90;;;;;;5096889;28;20469;-80
2021/08/23 09:33:03;;;;;;;15.20;13.60;;;;;;;;;;5115003;28;20481;-81
2021/08/23 09:35:33;;;;;;;16.30;14.70;;;;;;;;;;5115205;28;20795;-78
2021/08/23 09:38:00;;;;;;;14.20;12.80;;;20.30;99.90;;;;;;5107003;28;20478;-82
2021/08/23 09:40:31;;;;;;;13.53;12.23;;;;;;;;;;5092631;28;20461;-80
2021/08/23 09:42:59;;;;;;;13.80;12.17;;;;;;;;;;5089168;28;20502;-81
2021/08/23 09:45:27;;;;;;;12.20;10.97;;;;;;;;;;5096701;28;20537;-81
2021/08/23 09:48:05;;;;;;;14.80;13.30;;;;;;;;;;5113039;28;20438;-81
2021/08/23 09:50:41;;;;;;;17.30;15.50;;;20.30;99.90;;;;;;5091561;28;20596;-80
2021/08/23 09:53:11;;;;;;;18.10;16.20;;;20.40;99.90;;;;;;5089713;28;20939;-79
2021/08/23 09:55:39;;;;;;;13.90;12.50;;;20.30;99.90;;;;;;5091523;28;20995;-78
2021/08/23 09:58:08;;;;;;;17.80;16.10;;;20.30;99.90;;;;;;5090905;28;20474;-80
2021/08/23 10:00:36;;;;;;;15.97;14.23;;;20.20;99.90;;;;;;5109889;28;20514;-81
2021/08/23 10:03:13;;;;;;;13.77;11.80;;;19.90;99.90;;;;;;5110072;28;20465;-79
2021/08/23 10:05:42;;;;;;;13.87;12.47;;;19.90;99.90;;;;;;5106156;28;20811;-86
2021/08/23 10:08:09;;;;;;;14.83;13.33;;;19.90;99.90;;;;;;5104778;28;20458;-82
2021/08/23 10:10:39;;;;;;;12.30;11.10;;;20.00;99.90;;;;;;5107679;28;20470;-84
2021/08/23 10:13:06;;;;;;;11.23;10.13;;;;;;;;;;5097605;28;20450;-83
2021/08/23 10:15:33;;;;;;;13.37;12.07;;;19.80;99.90;;;;;;5109046;28;20439;-82
2021/08/23 10:18:01;;;;;;;13.27;11.90;;;20.00;99.90;;;;;;5110389;28;21021;-86
2021/08/23 10:20:30;;;;;;;15.77;14.10;;;20.00;99.90;;;;;;5111206;28;21150;-83
2021/08/23 10:22:58;;;;;;;12.90;11.67;;;20.00;99.90;;;;;;5093816;28;20438;-81
2021/08/23 10:25:26;;;;;;;14.30;12.90;;;20.00;99.90;;;;;;5112077;28;20470;-86
2021/08/23 10:28:05;;;;;;;18.50;16.47;;;20.00;99.90;;;;;;5111892;28;20439;-83
2021/08/23 10:30:33;;;;;;;15.27;13.67;;;20.00;99.90;;;;;;5105772;28;20446;-82
2021/08/23 10:33:10;;;;;;;15.90;14.33;;;20.00;99.90;;;;;;5107265;28;20442;-80
2021/08/23 10:35:48;;;;;;;17.73;15.77;;;;;;;;;;5089744;28;20809;-82
2021/08/23 10:38:17;;;;;;;19.90;16.73;;;;;;;;;;5079910;27;20481;-85
2021/08/23 10:40:48;;;;;;;18.50;16.57;;;;;;;;;;5130464;27;20458;-86
2021/08/23 10:43:17;;;;;;;17.10;15.40;;;20.10;99.90;;;;;;5097018;28;20462;-78
2021/08/23 10:45:46;;;;;;;18.70;16.80;;;;;;;;;;5110944;28;20970;-82
2021/08/23 10:48:15;;;;;;;16.17;14.57;;;20.20;99.90;;;;;;5113693;28;20545;-81
2021/08/23 10:50:42;;;;;;;18.00;16.20;;;20.40;99.90;;;;;;5114255;28;20480;-81
2021/08/23 10:53:14;;;;;;;14.20;12.77;;;20.40;99.90;;;;;;5090675;28;20431;-85
2021/08/23 10:55:41;;;;;;;14.30;13.00;;;20.50;99.90;;;;;;5091319;28;20445;-81
2021/08/23 10:58:10;;;;;;;17.23;13.93;;;20.50;99.90;;;;;;5112774;28;20485;-81
2021/08/23 11:00:38;;;;;;;17.53;15.23;;;20.50;99.90;;;;;;5112960;28;20470;-82
2021/08/23 11:03:06;;;;;;;14.07;12.77;;;20.50;99.90;;;;;;5113230;28;20438;-75
2021/08/23 11:05:34;;;;;;;15.20;13.90;;;20.50;99.90;;;;;;5108892;28;20457;-83
2021/08/23 11:08:07;;;;;;;14.40;12.80;;;20.50;99.90;;;;;;5105680;28;20550;-80
2021/08/23 11:10:39;;;;;;;13.57;12.37;;;20.50;99.90;;;;;;5108978;28;20490;-78
2021/08/23 11:13:15;;;;;;;12.40;11.10;;;20.60;99.90;;;;;;5091897;28;20438;-81
2021/08/23 11:15:42;;;;;;;11.83;10.73;;;20.70;99.90;;;;;;5108443;28;20435;-85
2021/08/23 11:18:11;;;;;;;11.33;10.27;;;20.70;99.90;;;;;;5091952;28;20876;-80
2021/08/23 11:20:40;;;;;;;10.87;9.87;;;20.80;99.90;;;;;;5092209;28;20490;-81
2021/08/23 11:23:09;;;;;;;11.03;9.97;;;20.80;99.90;;;;;;5110931;28;20878;-84
2021/08/23 11:25:41;;;;;;;11.20;9.97;;;20.80;99.90;;;;;;5092856;28;20435;-82
2021/08/23 11:28:09;;;;;;;10.10;9.20;;;20.90;99.90;;;;;;5090969;28;20439;-80
2021/08/23 11:30:38;;;;;;;11.73;10.63;;;20.90;99.90;;;;;;5086593;28;20450;-78
2021/08/23 11:33:07;;;;;;;11.10;9.90;;;21.00;99.90;;;;;;5088903;28;20446;-80
2021/08/23 11:35:34;;;;;;;10.80;9.87;;;21.00;99.90;;;;;;5093693;28;20933;-80
2021/08/23 11:38:03;;;;;;;11.90;10.77;;;21.00;99.90;;;;;;5092437;28;20493;-81
2021/08/23 11:40:32;;;;;;;13.83;12.53;;;21.10;99.90;;;;;;5108773;28;20459;-78
2021/08/23 11:43:02;;;;;;;12.10;11.00;;;21.10;99.90;;;;;;5091881;28;20442;-78
2021/08/23 11:45:31;;;;;;;11.80;10.60;;;21.10;99.90;;;;;;5110793;28;20439;-80
2021/08/23 11:47:58;;;;;;;12.43;11.23;;;21.10;99.90;;;;;;5110768;28;20442;-81
2021/08/23 11:50:31;;;;;;;11.93;10.83;;;21.10;99.90;;;;;;5109061;28;20493;-79
2021/08/23 11:53:03;;;;;;;10.13;9.23;;;21.00;99.90;;;;;;5103545;28;20425;-81
2021/08/23 11:55:33;;;;;;;11.40;10.40;;;21.10;99.90;;;;;;5088235;28;20437;-81
2021/08/23 11:58:03;;;;;;;10.30;9.30;;;21.10;99.90;;;;;;5108210;28;20854;-79
2021/08/23 12:00:31;;;;;;;7.70;7.00;;;21.20;99.90;;;;;;5108699;28;20534;-78
2021/08/23 12:03:07;;;;;;;9.83;9.00;;;21.30;99.90;;;;;;5108016;28;20438;-81
2021/08/23 12:05:36;;;;;;;10.70;9.80;;;21.40;99.90;;;;;;5091134;28;20465;-79
2021/08/23 12:08:03;;;;;;;9.20;8.30;;;21.40;99.90;;;;;;5092122;28;20446;-78
2021/08/23 12:10:32;;;;;;;10.60;9.60;;;21.50;99.90;;;;;;5110351;28;20458;-80
2021/08/23 12:13:16;;;;;;;12.07;10.97;;;21.60;99.90;;;;;;5090394;28;20435;-79
2021/08/23 12:15:52;;;;;;;12.07;10.97;;;21.70;99.90;;;;;;5072539;28;20438;-79
2021/08/23 12:18:28;;;;;;;10.80;9.70;;;21.70;99.90;;;;;;5108935;28;20751;-81
2021/08/23 12:21:06;;;;;;;12.93;10.53;;;21.80;99.90;;;;;;5092395;28;20462;-79
2021/08/23 12:23:50;;;;;;;10.93;9.10;;;21.80;99.90;;;;;;5094246;28;20440;-78
2021/08/23 12:26:23;;;;;;;9.90;9.00;;;21.90;99.90;;;;;;5111437;28;20470;-79
2021/08/23 12:28:54;;;;;;;9.47;8.57;;;21.80;99.90;;;;;;5114077;28;20873;-80
2021/08/23 12:31:21;;;;;;;9.40;8.60;;;21.80;99.90;;;;;;5095846;28;20461;-78
2021/08/23 12:33:50;;;;;;;10.30;9.40;;;21.80;99.90;;;;;;5096057;28;20827;-80
2021/08/23 12:36:17;;;;;;;9.93;9.03;;;21.80;99.90;;;;;;5108917;28;20444;-78
2021/08/23 12:38:45;;;;;;;9.53;8.70;;;21.80;99.90;;;;;;5108079;28;20492;-81
2021/08/23 12:41:13;;;;;;;9.70;8.80;;;21.80;99.90;;;;;;5110693;28;20457;-80
2021/08/23 12:43:41;;;;;;;10.70;9.70;;;;;;;;;;5092035;28;20442;-78
2021/08/23 12:46:10;;;;;;;10.93;9.90;;;;;;;;;;5094523;28;20434;-82
2021/08/23 12:48:37;;;;;;;10.90;9.90;;;;;;;;;;5115607;28;20451;-78
2021/08/23 12:51:05;;;;;;;9.47;8.73;;;21.70;99.90;;;;;;5114298;28;20454;-77
2021/08/23 12:53:33;;;;;;;12.40;11.30;;;;;;;;;;5092951;28;20453;-78
2021/08/23 12:56:00;;;;;;;9.80;8.90;;;;;;;;;;5106353;28;20441;-80
2021/08/23 12:58:28;;;;;;;10.37;9.47;;;;;;;;;;5115010;28;20478;-77
2021/08/23 13:00:56;;;;;;;12.13;10.93;;;;;;;;;;5114859;28;20462;-78
2021/08/23 13:03:24;;;;;;;10.63;9.63;;;;;;;;;;5115288;28;20493;-78
2021/08/23 13:05:52;;;;;;;11.07;10.13;;;;;;;;;;5116760;28;20439;-82
2021/08/23 13:08:20;;;;;;;10.37;9.47;;;;;;;;;;5117097;28;20458;-81
2021/08/23 13:10:48;;;;;;;12.97;11.87;;;;;;;;;;5117477;28;20462;-83
2021/08/23 13:13:16;;;;;;;10.17;9.20;;;;;;;;;;5096285;28;20437;-84
2021/08/23 13:15:44;;;;;;;11.70;10.70;;;;;;;;;;5110928;28;20438;-83
2021/08/23 13:18:13;;;;;;;11.30;10.33;;;;;;;;;;5114180;28;20470;-82